createdAt,value
2018-04-17T00:01:02.394Z,13.60
2018-04-17T00:02:05.694Z,14.13
2018-04-17T00:03:08.338Z,13.82
2018-04-17T00:04:10.877Z,14.95
2018-04-17T00:05:13.403Z,13.25
2018-04-17T00:06:16.718Z,15.20
2018-04-17T00:07:19.250Z,15.70
2018-04-17T00:08:22.544Z,15.40
2018-04-17T00:09:26.159Z,13.35
2018-04-17T00:10:28.671Z,14.10
2018-04-17T00:11:31.227Z,16.05
2018-04-17T00:12:33.766Z,15.05
2018-04-17T00:13:36.313Z,14.05
2018-04-17T00:14:38.862Z,15.15
2018-04-17T00:15:42.219Z,13.85
2018-04-17T00:16:44.776Z,14.23
2018-04-17T00:17:47.309Z,14.02
2018-04-17T00:18:49.864Z,13.40
2018-04-17T00:19:53.167Z,13.82
2018-04-17T00:20:55.727Z,15.57
2018-04-17T00:21:59.820Z,13.48
2018-04-17T00:23:02.335Z,13.77
2018-04-17T00:24:05.676Z,14.40
2018-04-17T00:25:08.226Z,14.02
2018-04-17T00:26:11.026Z,13.50
2018-04-17T00:27:13.543Z,14.25
2018-04-17T00:28:16.824Z,14.20
2018-04-17T00:29:20.127Z,13.20
2018-04-17T00:30:22.702Z,14.82
2018-04-17T00:31:26.009Z,16.48
2018-04-17T00:32:28.563Z,13.70
2018-04-17T00:33:31.842Z,14.48
2018-04-17T00:34:35.122Z,15.70
2018-04-17T00:35:38.438Z,14.63
2018-04-17T00:36:40.987Z,13.73
2018-04-17T00:37:44.302Z,13.88
2018-04-17T00:38:46.858Z,14.18
2018-04-17T00:39:49.372Z,14.80
2018-04-17T00:40:51.902Z,15.60
2018-04-17T00:41:54.457Z,14.15
2018-04-17T00:42:57.740Z,15.45
2018-04-17T00:44:01.028Z,16.50
2018-04-17T00:45:04.386Z,15.65
2018-04-17T00:46:06.938Z,16.83
2018-04-17T00:47:09.461Z,15.00
2018-04-17T00:48:12.741Z,16.52
2018-04-17T00:49:15.275Z,16.50
2018-04-17T00:50:17.797Z,16.73
2018-04-17T00:51:20.327Z,17.15
2018-04-17T00:52:22.911Z,16.10
2018-04-17T00:53:37.374Z,17.52
2018-04-17T00:54:40.690Z,16.48
2018-04-17T00:55:43.245Z,16.10
2018-04-17T00:56:45.767Z,16.67
2018-04-17T00:57:48.322Z,16.75
2018-04-17T00:58:50.849Z,16.80
2018-04-17T00:59:53.463Z,17.15
2018-04-17T01:00:55.984Z,15.70
2018-04-17T01:01:58.538Z,16.25
2018-04-17T01:03:01.111Z,15.68
2018-04-17T01:04:03.686Z,16.42
2018-04-17T01:05:06.232Z,15.85
2018-04-17T01:06:08.789Z,16.10
2018-04-17T01:07:11.397Z,17.23
2018-04-17T01:08:13.912Z,14.57
2018-04-17T01:09:17.285Z,16.05
2018-04-17T01:10:19.813Z,17.10
2018-04-17T01:11:22.325Z,14.68
2018-04-17T01:12:25.647Z,15.73
2018-04-17T01:13:28.188Z,14.93
2018-04-17T01:14:31.535Z,16.52
2018-04-17T01:15:34.041Z,15.65
2018-04-17T01:16:36.604Z,16.30
2018-04-17T01:17:39.934Z,16.95
2018-04-17T01:18:42.489Z,15.20
2018-04-17T01:19:45.014Z,15.75
2018-04-17T01:20:47.518Z,16.62
2018-04-17T01:21:50.054Z,18.00
2018-04-17T01:22:52.561Z,16.87
2018-04-17T01:23:55.876Z,15.65
2018-04-17T01:24:59.178Z,15.55
2018-04-17T01:26:01.720Z,17.73
2018-04-17T01:27:05.043Z,18.00
2018-04-17T01:28:07.621Z,19.20
2018-04-17T01:29:10.190Z,18.00
2018-04-17T01:30:12.723Z,16.65
2018-04-17T01:31:16.034Z,18.10
2018-04-17T01:32:18.566Z,18.37
2018-04-17T01:33:21.074Z,16.05
2018-04-17T01:34:23.596Z,17.77
2018-04-17T01:35:26.116Z,15.82
2018-04-17T01:36:28.629Z,15.70
2018-04-17T01:37:31.159Z,16.15
2018-04-17T01:38:33.699Z,16.55
2018-04-17T01:39:36.278Z,16.70
2018-04-17T01:40:38.805Z,15.45
2018-04-17T01:41:41.336Z,15.95
2018-04-17T01:42:44.645Z,15.38
2018-04-17T01:43:47.215Z,17.60
2018-04-17T01:44:49.728Z,14.75
2018-04-17T01:45:52.245Z,17.30
2018-04-17T01:46:54.789Z,16.35
2018-04-17T01:47:57.293Z,18.85
2018-04-17T01:48:59.833Z,17.12
2018-04-17T01:50:03.117Z,17.83
2018-04-17T01:51:06.431Z,18.45
2018-04-17T01:52:09.714Z,19.10
2018-04-17T01:53:13.026Z,19.90
2018-04-17T01:54:15.575Z,18.58
2018-04-17T01:55:18.935Z,18.60
2018-04-17T01:56:22.233Z,18.90
2018-04-17T01:57:24.748Z,17.80
2018-04-17T01:58:27.266Z,18.48
2018-04-17T01:59:29.801Z,19.17
2018-04-17T02:00:32.319Z,20.55
2018-04-17T02:01:35.627Z,18.50
2018-04-17T02:02:38.900Z,19.98
2018-04-17T02:03:41.445Z,19.17
2018-04-17T02:04:43.969Z,19.58
2018-04-17T02:05:46.481Z,17.90
2018-04-17T02:06:49.037Z,20.00
2018-04-17T02:07:51.595Z,17.83
2018-04-17T02:08:54.143Z,18.05
2018-04-17T02:09:56.674Z,18.52
2018-04-17T02:10:59.190Z,19.12
2018-04-17T02:12:01.726Z,20.25
2018-04-17T02:13:04.241Z,19.62
2018-04-17T02:14:06.809Z,18.77
2018-04-17T02:15:09.368Z,21.30
2018-04-17T02:16:12.653Z,21.30
2018-04-17T02:17:15.958Z,21.30
2018-04-17T02:18:18.487Z,21.65
2018-04-17T02:19:21.042Z,20.77
2018-04-17T02:20:23.583Z,21.17
2018-04-17T02:21:26.118Z,19.80
2018-04-17T02:22:29.432Z,19.75
2018-04-17T02:23:31.954Z,21.70
2018-04-17T02:24:35.288Z,19.87
2018-04-17T02:25:37.901Z,20.27
2018-04-17T02:26:40.454Z,20.85
2018-04-17T02:27:42.992Z,19.25
2018-04-17T02:28:46.289Z,22.85
2018-04-17T02:29:48.866Z,22.35
2018-04-17T02:30:51.402Z,22.40
2018-04-17T02:31:53.932Z,20.70
2018-04-17T02:32:56.468Z,23.23
2018-04-17T02:33:58.975Z,23.75
2018-04-17T02:35:01.502Z,23.60
2018-04-17T02:36:04.794Z,22.62
2018-04-17T02:37:08.177Z,22.15
2018-04-17T02:38:11.519Z,24.37
2018-04-17T02:39:14.028Z,23.50
2018-04-17T02:40:16.561Z,23.77
2018-04-17T02:41:19.100Z,22.85
2018-04-17T02:42:21.688Z,23.42
2018-04-17T02:43:24.207Z,25.65
2018-04-17T02:44:26.719Z,24.73
2018-04-17T02:45:29.231Z,23.95
2018-04-17T02:46:31.755Z,21.95
2018-04-17T02:47:34.343Z,22.73
2018-04-17T02:48:37.626Z,23.17
2018-04-17T02:49:40.155Z,23.70
2018-04-17T02:50:43.432Z,22.87
2018-04-17T02:51:46.762Z,22.58
2018-04-17T02:52:49.291Z,22.20
2018-04-17T02:53:51.831Z,24.08
2018-04-17T02:54:54.356Z,22.25
2018-04-17T02:55:57.635Z,22.62
2018-04-17T02:57:00.936Z,21.08
2018-04-17T02:58:04.227Z,23.10
2018-04-17T02:59:06.795Z,22.73
2018-04-17T03:00:09.352Z,22.75
2018-04-17T03:01:12.679Z,22.10
2018-04-17T03:02:15.229Z,23.45
2018-04-17T03:03:18.518Z,23.05
2018-04-17T03:04:21.805Z,23.55
2018-04-17T03:05:25.102Z,23.80
2018-04-17T03:06:27.686Z,24.90
2018-04-17T03:07:30.270Z,24.98
2018-04-17T03:08:32.791Z,25.17
2018-04-17T03:09:36.153Z,25.83
2018-04-17T03:10:38.664Z,27.77
2018-04-17T03:11:42.007Z,25.48
2018-04-17T03:12:44.554Z,28.77
2018-04-17T03:13:47.133Z,27.73
2018-04-17T03:14:49.677Z,29.20
2018-04-17T03:15:52.207Z,26.17
2018-04-17T03:16:54.729Z,29.02
2018-04-17T03:17:57.261Z,27.40
2018-04-17T03:18:59.806Z,27.40
2018-04-17T03:20:02.351Z,30.70
2018-04-17T03:21:05.639Z,31.12
2018-04-17T03:22:08.192Z,28.30
2018-04-17T03:23:10.804Z,29.87
2018-04-17T03:24:13.380Z,27.17
2018-04-17T03:25:15.895Z,28.48
2018-04-17T03:26:18.465Z,30.60
2018-04-17T03:27:21.769Z,29.45
2018-04-17T03:28:24.311Z,29.23
2018-04-17T03:29:26.856Z,29.27
2018-04-17T03:30:29.388Z,31.83
2018-04-17T03:31:31.910Z,30.00
2018-04-17T03:32:34.448Z,31.95
2018-04-17T03:33:37.379Z,29.70
2018-04-17T03:34:39.932Z,30.55
2018-04-17T03:35:42.451Z,29.75
2018-04-17T03:36:44.985Z,29.58
2018-04-17T03:37:47.548Z,28.45
2018-04-17T03:38:50.101Z,31.27
2018-04-17T03:39:52.646Z,30.52
2018-04-17T03:40:55.156Z,30.60
2018-04-17T03:41:57.696Z,28.95
2018-04-17T03:43:00.224Z,32.08
2018-04-17T03:44:03.554Z,32.45
2018-04-17T03:45:06.110Z,33.05
2018-04-17T03:46:08.615Z,33.92
2018-04-17T03:47:11.166Z,30.10
2018-04-17T03:48:13.717Z,33.10
2018-04-17T03:49:16.296Z,32.83
2018-04-17T03:50:18.828Z,29.92
2018-04-17T03:51:21.375Z,30.00
2018-04-17T03:52:23.895Z,28.83
2018-04-17T03:53:26.429Z,32.30
2018-04-17T03:54:28.978Z,30.48
2018-04-17T03:55:31.532Z,32.35
2018-04-17T03:56:34.064Z,31.30
2018-04-17T03:57:37.506Z,32.08
2018-04-17T03:58:40.040Z,30.98
2018-04-17T03:59:43.330Z,32.40
2018-04-17T04:00:45.875Z,31.90
2018-04-17T04:01:48.397Z,29.58
2018-04-17T04:02:50.907Z,31.67
2018-04-17T04:03:53.445Z,33.35
2018-04-17T04:04:55.957Z,30.40
2018-04-17T04:05:58.511Z,33.75
2018-04-17T04:07:01.370Z,32.38
2018-04-17T04:08:03.884Z,32.30
2018-04-17T04:09:07.174Z,32.13
2018-04-17T04:10:10.537Z,33.03
2018-04-17T04:11:13.181Z,32.80
2018-04-17T04:12:15.703Z,35.40
2018-04-17T04:13:18.302Z,34.65
2018-04-17T04:14:20.877Z,34.03
2018-04-17T04:15:24.176Z,32.97
2018-04-17T04:16:38.748Z,33.47
2018-04-17T04:17:53.020Z,32.63
2018-04-17T04:19:07.340Z,33.72
2018-04-17T04:20:21.605Z,34.00
2018-04-17T04:21:36.137Z,34.15
2018-04-17T04:22:50.505Z,34.20
2018-04-17T04:24:05.077Z,31.95
2018-04-17T04:26:52.863Z,31.95
2018-04-17T04:27:55.405Z,33.85
2018-04-17T04:28:58.691Z,33.55
2018-04-17T04:30:01.253Z,34.33
2018-04-17T04:31:03.806Z,35.50
2018-04-17T04:32:06.375Z,35.85
2018-04-17T04:33:08.927Z,36.58
2018-04-17T04:34:11.681Z,34.30
2018-04-17T04:35:14.233Z,34.40
2018-04-17T04:36:17.525Z,34.13
2018-04-17T04:37:20.845Z,33.85
2018-04-17T04:38:23.386Z,33.40
2018-04-17T04:39:26.680Z,32.15
2018-04-17T04:40:29.952Z,34.88
2018-04-17T04:41:32.509Z,35.47
2018-04-17T04:42:35.336Z,36.33
2018-04-17T04:43:37.927Z,36.50
2018-04-17T04:44:40.421Z,37.03
2018-04-17T04:45:42.971Z,37.75
2018-04-17T04:46:45.521Z,36.50
2018-04-17T04:47:48.101Z,39.08
2018-04-17T04:48:50.622Z,37.42
2018-04-17T04:49:53.918Z,37.03
2018-04-17T04:50:56.480Z,36.30
2018-04-17T04:51:59.818Z,40.90
2018-04-17T04:53:02.350Z,39.28
2018-04-17T04:54:05.675Z,35.33
2018-04-17T04:55:08.240Z,35.13
2018-04-17T04:56:10.929Z,37.67
2018-04-17T04:57:13.507Z,37.72
2018-04-17T04:58:16.045Z,37.22
2018-04-17T04:59:19.314Z,34.75
2018-04-17T05:00:22.630Z,31.50
2018-04-17T05:01:25.180Z,35.55
2018-04-17T05:02:27.751Z,32.70
2018-04-17T05:03:31.067Z,34.58
2018-04-17T05:04:33.590Z,31.90
2018-04-17T05:05:36.925Z,31.92
2018-04-17T05:06:39.463Z,27.58
2018-04-17T05:07:42.350Z,25.42
2018-04-17T05:08:45.640Z,21.15
2018-04-17T05:09:48.953Z,19.00
2018-04-17T05:10:51.541Z,17.30
2018-04-17T05:11:54.710Z,14.48
2018-04-17T05:12:57.316Z,14.98
2018-04-17T05:13:59.860Z,12.60
2018-04-17T05:15:02.404Z,11.25
2018-04-17T05:16:05.200Z,11.12
2018-04-17T05:17:07.759Z,12.20
2018-04-17T05:18:10.365Z,11.68
2018-04-17T05:19:12.970Z,12.10
2018-04-17T05:20:17.010Z,11.23
2018-04-17T05:21:20.434Z,10.95
2018-04-17T05:22:22.970Z,10.30
2018-04-17T05:23:26.762Z,9.55
2018-04-17T05:24:30.033Z,9.93
2018-04-17T05:25:32.553Z,9.70
2018-04-17T05:26:35.085Z,9.95
2018-04-17T05:27:37.649Z,10.60
2018-04-17T05:28:41.067Z,10.18
2018-04-17T05:29:44.350Z,9.48
2018-04-17T05:30:47.662Z,8.23
2018-04-17T05:31:50.188Z,9.30
2018-04-17T05:32:52.713Z,8.63
2018-04-17T05:33:55.265Z,8.48
2018-04-17T05:34:57.800Z,9.43
2018-04-17T05:36:00.319Z,9.35
2018-04-17T05:37:02.831Z,8.35
2018-04-17T05:38:05.399Z,10.90
2018-04-17T05:39:08.068Z,9.20
2018-04-17T05:40:10.909Z,8.15
2018-04-17T05:41:13.411Z,9.30
2018-04-17T05:42:15.939Z,8.68
2018-04-17T05:43:18.519Z,9.38
2018-04-17T05:44:21.114Z,10.40
2018-04-17T05:45:23.654Z,7.60
2018-04-17T05:46:26.244Z,7.75
2018-04-17T05:47:28.793Z,7.72
2018-04-17T05:48:32.114Z,10.25
2018-04-17T05:49:34.623Z,9.80
2018-04-17T05:50:38.057Z,9.60
2018-04-17T05:51:40.578Z,9.18
2018-04-17T05:52:43.118Z,10.23
2018-04-17T05:53:45.684Z,9.55
2018-04-17T05:54:48.219Z,10.07
2018-04-17T05:55:51.561Z,9.38
2018-04-17T05:56:54.056Z,8.82
2018-04-17T05:57:56.606Z,9.32
2018-04-17T05:58:59.153Z,9.20
2018-04-17T06:00:01.704Z,8.80
2018-04-17T06:01:04.254Z,8.65
2018-04-17T06:02:07.560Z,9.77
2018-04-17T06:03:11.011Z,12.18
2018-04-17T06:04:13.569Z,9.30
2018-04-17T06:05:16.128Z,9.73
2018-04-17T06:06:18.637Z,9.95
2018-04-17T06:07:21.166Z,10.07
2018-04-17T06:08:23.708Z,9.98
2018-04-17T06:09:27.043Z,9.02
2018-04-17T06:10:29.555Z,9.30
2018-04-17T06:11:32.170Z,9.40
2018-04-17T06:12:34.765Z,10.30
2018-04-17T06:13:37.299Z,9.82
2018-04-17T06:14:39.833Z,9.15
2018-04-17T06:15:43.205Z,9.48
2018-04-17T06:16:46.527Z,9.93
2018-04-17T06:17:49.394Z,9.75
2018-04-17T06:18:52.733Z,9.32
2018-04-17T06:19:56.042Z,9.68
2018-04-17T06:20:58.555Z,9.63
2018-04-17T06:22:01.868Z,10.00
2018-04-17T06:23:04.545Z,9.23
2018-04-17T06:24:07.098Z,8.90
2018-04-17T06:25:10.711Z,9.27
2018-04-17T06:26:13.351Z,9.43
2018-04-17T06:27:16.665Z,9.63
2018-04-17T06:28:19.204Z,9.73
2018-04-17T06:29:22.536Z,9.30
2018-04-17T06:30:25.106Z,8.47
2018-04-17T06:31:27.654Z,10.60
2018-04-17T06:32:30.964Z,9.00
2018-04-17T06:33:33.513Z,8.73
2018-04-17T06:34:36.862Z,9.27
2018-04-17T06:35:39.419Z,9.37
2018-04-17T06:36:41.959Z,9.57
2018-04-17T06:37:44.506Z,8.90
2018-04-17T06:38:47.806Z,14.47
2018-04-17T06:39:51.219Z,10.03
2018-04-17T06:40:53.764Z,9.93
2018-04-17T06:41:57.114Z,9.77
2018-04-17T06:42:59.601Z,9.37
2018-04-17T06:44:02.154Z,8.50
2018-04-17T06:45:04.720Z,9.17
2018-04-17T06:46:07.279Z,9.17
2018-04-17T06:47:09.850Z,8.50
2018-04-17T06:48:12.528Z,8.30
2018-04-17T06:49:15.070Z,8.80
2018-04-17T06:50:17.613Z,8.10
2018-04-17T06:51:21.826Z,8.27
2018-04-17T06:52:25.102Z,7.17
2018-04-17T06:53:27.618Z,8.27
2018-04-17T06:54:30.142Z,9.73
2018-04-17T06:55:34.201Z,8.93
2018-04-17T06:56:36.745Z,8.43
2018-04-17T06:57:39.320Z,8.53
2018-04-17T06:58:42.626Z,8.60
2018-04-17T06:59:45.924Z,8.50
2018-04-17T07:00:48.472Z,7.77
2018-04-17T07:01:51.010Z,8.57
2018-04-17T07:02:53.537Z,7.87
2018-04-17T07:03:56.057Z,9.10
2018-04-17T07:04:59.336Z,8.17
2018-04-17T07:06:01.892Z,8.30
2018-04-17T07:07:04.458Z,8.20
2018-04-17T07:08:06.969Z,8.80
2018-04-17T07:09:10.353Z,6.90
2018-04-17T07:10:12.906Z,8.97
2018-04-17T07:11:15.451Z,8.10
2018-04-17T07:12:17.975Z,8.63
2018-04-17T07:13:21.298Z,8.70
2018-04-17T07:14:23.823Z,7.83
2018-04-17T07:15:27.154Z,7.13
2018-04-17T07:16:29.689Z,8.07
2018-04-17T07:17:32.317Z,9.10
2018-04-17T07:18:35.303Z,8.23
2018-04-17T07:19:37.853Z,7.83
2018-04-17T07:20:40.401Z,8.20
2018-04-17T07:21:43.693Z,8.13
2018-04-17T07:22:46.217Z,9.10
2018-04-17T07:23:48.741Z,7.47
2018-04-17T07:24:52.017Z,8.47
2018-04-17T07:25:55.305Z,8.00
2018-04-17T07:26:58.598Z,7.30
2018-04-17T07:28:01.869Z,8.60
2018-04-17T07:29:04.414Z,7.30
2018-04-17T07:30:06.950Z,7.07
2018-04-17T07:31:09.541Z,8.60
2018-04-17T07:32:12.434Z,8.40
2018-04-17T07:33:15.040Z,7.37
2018-04-17T07:34:18.359Z,8.00
2018-04-17T07:35:20.948Z,8.60
2018-04-17T07:36:23.496Z,8.30
2018-04-17T07:37:26.047Z,8.80
2018-04-17T07:38:29.366Z,9.10
2018-04-17T07:39:31.922Z,8.60
2018-04-17T07:40:34.543Z,8.73
2018-04-17T07:41:37.065Z,8.50
2018-04-17T07:42:40.362Z,8.60
2018-04-17T07:43:43.386Z,7.60
2018-04-17T07:44:45.922Z,7.23
2018-04-17T07:45:48.427Z,7.47
2018-04-17T07:47:02.767Z,7.60
2018-04-17T07:48:23.131Z,8.00
2018-04-17T07:49:25.667Z,8.13
2018-04-17T07:50:28.193Z,8.83
2018-04-17T07:51:30.728Z,7.50
2018-04-17T07:52:34.039Z,8.73
2018-04-17T07:53:36.742Z,7.77
2018-04-17T07:54:39.300Z,8.53
2018-04-17T07:55:41.910Z,8.30
2018-04-17T07:56:44.427Z,8.83
2018-04-17T07:57:46.959Z,7.80
2018-04-17T07:58:49.500Z,9.20
2018-04-17T07:59:52.045Z,8.47
2018-04-17T08:00:54.608Z,8.23
2018-04-17T08:01:57.180Z,8.53
2018-04-17T08:02:59.722Z,8.83
2018-04-17T08:04:03.031Z,8.93
2018-04-17T08:05:05.556Z,8.40
2018-04-17T08:06:08.859Z,8.00
2018-04-17T08:07:12.216Z,8.33
2018-04-17T08:08:14.732Z,8.73
2018-04-17T08:09:18.073Z,8.10
2018-04-17T08:10:20.633Z,10.47
2018-04-17T08:11:23.175Z,9.10
2018-04-17T08:12:25.743Z,8.73
2018-04-17T08:13:29.022Z,8.77
2018-04-17T08:14:31.566Z,8.83
2018-04-17T08:15:34.105Z,8.80
2018-04-17T08:16:36.860Z,8.07
2018-04-17T08:17:39.447Z,8.73
2018-04-17T08:18:41.962Z,7.67
2018-04-17T08:19:44.582Z,10.17
2018-04-17T08:20:47.111Z,8.83
2018-04-17T08:21:49.644Z,8.90
2018-04-17T08:22:52.168Z,8.43
2018-04-17T08:23:55.463Z,8.47
2018-04-17T08:24:58.752Z,9.13
2018-04-17T08:26:02.075Z,9.77
2018-04-17T08:27:04.621Z,9.47
2018-04-17T08:28:07.211Z,8.00
2018-04-17T08:29:09.901Z,8.23
2018-04-17T08:30:12.649Z,9.20
2018-04-17T08:31:15.226Z,10.00
2018-04-17T08:32:17.821Z,9.43
2018-04-17T08:33:20.345Z,9.90
2018-04-17T08:34:23.677Z,10.03
2018-04-17T08:35:26.287Z,9.37
2018-04-17T08:36:28.818Z,9.37
2018-04-17T08:37:31.322Z,8.80
2018-04-17T08:38:33.908Z,9.17
2018-04-17T08:39:36.630Z,9.03
2018-04-17T08:40:39.211Z,9.77
2018-04-17T08:41:41.746Z,9.07
2018-04-17T08:42:45.098Z,8.00
2018-04-17T08:43:47.614Z,9.63
2018-04-17T08:44:51.059Z,8.27
2018-04-17T08:45:53.638Z,8.40
2018-04-17T08:46:56.176Z,9.60
2018-04-17T08:47:58.715Z,9.10
2018-04-17T08:49:02.004Z,9.03
2018-04-17T08:50:05.319Z,9.20
2018-04-17T08:51:07.865Z,10.30
2018-04-17T08:52:10.690Z,10.20
2018-04-17T08:53:13.227Z,10.10
2018-04-17T08:54:15.755Z,9.70
2018-04-17T08:55:18.333Z,10.00
2018-04-17T08:56:20.879Z,9.73
2018-04-17T08:57:23.403Z,9.87
2018-04-17T08:58:25.934Z,10.10
2018-04-17T08:59:28.505Z,9.80
2018-04-17T09:00:31.078Z,10.40
2018-04-17T09:01:33.632Z,10.83
2018-04-17T09:02:36.280Z,9.97
2018-04-17T09:03:38.792Z,10.93
2018-04-17T09:04:41.335Z,11.50
2018-04-17T09:05:43.840Z,10.90
2018-04-17T09:06:46.431Z,11.40
2018-04-17T09:07:48.998Z,11.17
2018-04-17T09:08:52.288Z,11.13
2018-04-17T09:09:55.588Z,11.00
2018-04-17T09:10:58.900Z,9.83
2018-04-17T09:12:01.531Z,10.00
2018-04-17T09:13:04.038Z,10.30
2018-04-17T09:14:07.325Z,10.73
2018-04-17T09:15:10.077Z,11.67
2018-04-17T09:16:12.676Z,9.50
2018-04-17T09:17:15.214Z,10.10
2018-04-17T09:18:18.511Z,10.00
2018-04-17T09:19:21.788Z,9.50
2018-04-17T09:20:24.313Z,9.83
2018-04-17T09:21:26.887Z,11.53
2018-04-17T09:22:29.437Z,9.50
2018-04-17T09:23:31.996Z,10.13
2018-04-17T09:24:34.535Z,11.97
2018-04-17T09:25:37.064Z,9.90
2018-04-17T09:26:39.616Z,9.33
2018-04-17T09:27:42.164Z,10.53
2018-04-17T09:28:45.496Z,11.73
2018-04-17T09:29:48.034Z,9.43
2018-04-17T09:30:50.587Z,10.80
2018-04-17T09:31:53.104Z,9.80
2018-04-17T09:32:55.685Z,10.37
2018-04-17T09:33:58.237Z,10.93
2018-04-17T09:35:00.794Z,10.00
2018-04-17T09:36:03.562Z,10.23
2018-04-17T09:37:06.024Z,10.03
2018-04-17T09:38:09.332Z,12.00
2018-04-17T09:39:11.940Z,10.17
2018-04-17T09:40:14.497Z,10.77
2018-04-17T09:41:17.913Z,9.87
2018-04-17T09:42:20.414Z,9.53
2018-04-17T09:43:22.938Z,10.00
2018-04-17T09:44:25.470Z,9.00
2018-04-17T09:45:28.753Z,9.83
2018-04-17T09:46:32.039Z,10.57
2018-04-17T09:47:35.352Z,10.60
2018-04-17T09:48:37.925Z,9.97
2018-04-17T09:49:40.467Z,9.50
2018-04-17T09:50:43.815Z,12.17
2018-04-17T09:51:46.343Z,11.83
2018-04-17T09:52:49.631Z,10.70
2018-04-17T09:53:52.955Z,12.53
2018-04-17T09:54:55.484Z,11.03
2018-04-17T09:55:58.887Z,11.47
2018-04-17T09:57:01.407Z,11.43
2018-04-17T09:58:03.968Z,12.27
2018-04-17T09:59:06.564Z,11.30
2018-04-17T10:00:09.131Z,11.60
2018-04-17T10:01:17.242Z,10.53
2018-04-17T10:02:20.545Z,10.27
2018-04-17T10:03:23.857Z,10.40
2018-04-17T10:04:26.415Z,11.50
2018-04-17T10:05:28.951Z,10.93
2018-04-17T10:06:31.474Z,11.47
2018-04-17T10:07:34.019Z,11.13
2018-04-17T10:08:36.810Z,11.13
2018-04-17T10:09:39.817Z,11.30
2018-04-17T10:10:42.359Z,11.37
2018-04-17T10:11:44.911Z,11.40
2018-04-17T10:12:48.197Z,11.57
2018-04-17T10:13:52.231Z,10.87
2018-04-17T10:14:54.762Z,11.60
2018-04-17T10:15:57.329Z,11.77
2018-04-17T10:16:59.868Z,11.53
2018-04-17T10:18:02.395Z,12.33
2018-04-17T10:19:05.728Z,11.20
2018-04-17T10:20:08.272Z,11.23
2018-04-17T10:21:10.887Z,10.00
2018-04-17T10:22:14.190Z,10.30
2018-04-17T10:23:16.746Z,10.40
2018-04-17T10:24:19.309Z,10.53
2018-04-17T10:25:21.852Z,11.10
2018-04-17T10:26:24.410Z,9.33
2018-04-17T10:27:27.698Z,8.97
2018-04-17T10:28:30.984Z,9.27
2018-04-17T10:29:34.271Z,10.13
2018-04-17T10:30:37.778Z,11.53
2018-04-17T10:31:40.341Z,9.77
2018-04-17T10:32:42.902Z,10.13
2018-04-17T10:33:46.176Z,10.37
2018-04-17T10:34:48.705Z,9.27
2018-04-17T10:35:51.253Z,9.20
2018-04-17T10:36:53.857Z,8.33
2018-04-17T10:37:56.371Z,9.90
2018-04-17T10:38:58.917Z,8.23
2018-04-17T10:40:01.434Z,10.10
2018-04-17T10:41:03.991Z,11.07
2018-04-17T10:42:07.278Z,11.20
2018-04-17T10:43:10.585Z,10.73
2018-04-17T10:44:13.926Z,11.20
2018-04-17T10:45:16.491Z,10.37
2018-04-17T10:46:19.027Z,8.90
2018-04-17T10:47:21.599Z,9.37
2018-04-17T10:48:24.163Z,10.80
2018-04-17T10:49:26.693Z,10.63
2018-04-17T10:50:29.215Z,10.23
2018-04-17T10:51:31.892Z,8.80
2018-04-17T10:52:34.468Z,9.47
2018-04-17T10:53:38.218Z,10.27
2018-04-17T10:54:41.549Z,9.63
2018-04-17T10:55:44.088Z,9.73
2018-04-17T10:56:47.385Z,11.40
2018-04-17T10:57:50.685Z,10.27
2018-04-17T10:58:53.230Z,10.73
2018-04-17T10:59:55.743Z,10.93
2018-04-17T11:00:58.305Z,10.10
2018-04-17T11:02:00.838Z,9.40
2018-04-17T11:03:03.377Z,10.87
2018-04-17T11:04:05.959Z,11.67
2018-04-17T11:05:09.340Z,9.63
2018-04-17T11:06:12.113Z,10.70
2018-04-17T11:07:14.670Z,10.10
2018-04-17T11:08:17.204Z,10.50
2018-04-17T11:09:20.505Z,10.50
2018-04-17T11:10:23.846Z,10.00
2018-04-17T11:11:26.361Z,10.80
2018-04-17T11:12:29.657Z,11.30
2018-04-17T11:13:32.217Z,11.33
2018-04-17T11:14:34.807Z,11.03
2018-04-17T11:15:37.492Z,11.67
2018-04-17T11:16:40.053Z,11.80
2018-04-17T11:17:42.610Z,11.90
2018-04-17T11:18:45.917Z,11.93
2018-04-17T11:19:48.504Z,12.75
2018-04-17T11:20:51.061Z,12.88
2018-04-17T11:21:53.599Z,11.63
2018-04-17T11:22:56.927Z,12.35
2018-04-17T11:23:59.460Z,12.48
2018-04-17T11:25:02.815Z,12.35
2018-04-17T11:26:05.435Z,12.05
2018-04-17T11:27:08.887Z,12.18
2018-04-17T11:28:11.967Z,12.02
2018-04-17T11:29:14.488Z,13.40
2018-04-17T11:30:17.069Z,11.38
2018-04-17T11:31:19.595Z,12.02
2018-04-17T11:32:22.156Z,11.93
2018-04-17T11:33:24.698Z,12.07
2018-04-17T11:34:27.277Z,12.45
2018-04-17T11:35:29.824Z,12.10
2018-04-17T11:36:32.386Z,12.68
2018-04-17T11:37:34.994Z,13.50
2018-04-17T11:38:37.539Z,12.65
2018-04-17T11:39:40.091Z,12.93
2018-04-17T11:40:43.399Z,12.25
2018-04-17T11:41:45.962Z,10.45
2018-04-17T11:42:49.310Z,10.85
2018-04-17T11:43:51.855Z,11.23
2018-04-17T11:44:54.396Z,12.00
2018-04-17T11:45:56.946Z,11.90
2018-04-17T11:47:00.252Z,11.10
2018-04-17T11:48:03.602Z,12.27
2018-04-17T11:49:06.244Z,12.07
2018-04-17T11:50:08.867Z,12.10
2018-04-17T11:51:11.609Z,11.40
2018-04-17T11:52:14.179Z,11.85
2018-04-17T11:53:16.739Z,10.95
2018-04-17T11:54:19.277Z,11.13
2018-04-17T11:55:22.590Z,10.70
2018-04-17T11:56:25.144Z,10.57
2018-04-17T11:57:28.496Z,10.80
2018-04-17T11:58:31.031Z,11.03
2018-04-17T11:59:33.578Z,10.30
2018-04-17T12:00:36.160Z,9.87
2018-04-17T12:01:39.660Z,9.20
2018-04-17T12:02:42.217Z,9.82
2018-04-17T12:03:44.747Z,10.10
2018-04-17T12:04:47.271Z,9.63
2018-04-17T12:05:49.820Z,10.20
2018-04-17T12:06:53.147Z,10.50
2018-04-17T12:07:55.693Z,10.80
2018-04-17T12:08:58.216Z,10.00
2018-04-17T12:10:00.770Z,10.17
2018-04-17T12:11:03.322Z,11.25
2018-04-17T12:12:06.741Z,10.77
2018-04-17T12:13:09.315Z,11.02
2018-04-17T12:14:12.060Z,9.82
2018-04-17T12:15:14.629Z,11.05
2018-04-17T12:16:17.209Z,11.15
2018-04-17T12:17:19.757Z,10.90
2018-04-17T12:18:22.368Z,10.27
2018-04-17T12:19:24.954Z,10.15
2018-04-17T12:20:28.128Z,9.45
2018-04-17T12:21:30.723Z,10.00
2018-04-17T12:22:34.047Z,9.10
2018-04-17T12:23:37.387Z,10.02
2018-04-17T12:24:40.287Z,10.27
2018-04-17T12:25:42.848Z,10.60
2018-04-17T12:26:45.440Z,10.98
2018-04-17T12:27:48.800Z,11.12
2018-04-17T12:28:51.432Z,10.20
2018-04-17T12:29:53.999Z,10.13
2018-04-17T12:30:56.598Z,9.77
2018-04-17T12:31:59.677Z,9.15
2018-04-17T12:33:02.225Z,9.73
2018-04-17T12:34:04.801Z,10.43
2018-04-17T12:35:07.403Z,11.80
2018-04-17T12:36:10.195Z,11.10
2018-04-17T12:37:12.860Z,10.38
2018-04-17T12:38:15.425Z,10.55
2018-04-17T12:39:17.974Z,11.02
2018-04-17T12:40:20.522Z,11.00
2018-04-17T12:41:23.066Z,9.88
2018-04-17T12:42:26.406Z,9.40
2018-04-17T12:43:28.951Z,10.25
2018-04-17T12:44:32.265Z,10.20
2018-04-17T12:45:34.859Z,11.38
2018-04-17T12:46:37.411Z,10.93
2018-04-17T12:47:40.033Z,11.80
2018-04-17T12:48:42.577Z,11.88
2018-04-17T12:49:45.146Z,11.02
2018-04-17T12:50:47.661Z,11.73
2018-04-17T12:51:51.018Z,9.60
2018-04-17T12:52:53.570Z,9.68
2018-04-17T12:53:56.125Z,11.68
2018-04-17T12:54:58.648Z,11.02
2018-04-17T12:56:01.202Z,10.52
2018-04-17T12:57:03.794Z,11.23
2018-04-17T12:58:07.166Z,9.88
2018-04-17T12:59:09.743Z,10.20
2018-04-17T13:00:12.546Z,8.98
2018-04-17T13:01:15.064Z,8.88
2018-04-17T13:02:17.601Z,9.68
2018-04-17T13:03:20.165Z,11.75
2018-04-17T13:04:23.464Z,10.57
2018-04-17T13:05:26.016Z,10.48
2018-04-17T13:06:28.571Z,8.68
2018-04-17T13:07:31.127Z,9.90
2018-04-17T13:08:33.665Z,9.55
2018-04-17T13:09:36.251Z,8.02
2018-04-17T13:10:38.779Z,8.23
2018-04-17T13:11:41.321Z,8.45
2018-04-17T13:12:43.857Z,8.13
2018-04-17T13:13:46.416Z,8.05
2018-04-17T13:14:48.951Z,8.80
2018-04-17T13:15:52.272Z,9.40
2018-04-17T13:16:54.820Z,8.65
2018-04-17T13:17:58.115Z,8.40
2018-04-17T13:19:01.453Z,9.15
2018-04-17T13:20:03.990Z,9.10
2018-04-17T13:21:06.574Z,9.73
2018-04-17T13:22:09.142Z,8.48
2018-04-17T13:23:11.846Z,8.55
2018-04-17T13:24:14.414Z,8.30
2018-04-17T13:25:16.976Z,8.48
2018-04-17T13:26:19.496Z,8.43
2018-04-17T13:27:22.814Z,8.40
2018-04-17T13:28:25.373Z,8.48
2018-04-17T13:29:27.968Z,8.80
2018-04-17T13:30:30.507Z,8.98
2018-04-17T13:31:33.808Z,7.37
2018-04-17T13:32:37.118Z,8.38
2018-04-17T13:33:39.675Z,9.13
2018-04-17T13:34:42.249Z,8.48
2018-04-17T13:35:44.814Z,8.07
2018-04-17T13:36:47.359Z,7.72
2018-04-17T13:37:50.048Z,8.65
2018-04-17T13:38:52.629Z,9.35
2018-04-17T13:39:55.236Z,8.77
2018-04-17T13:40:57.831Z,8.27
2018-04-17T13:42:00.362Z,7.55